createdAt,value
2023-02-25T00:01:29.078Z,10.35
2023-02-25T00:03:57.916Z,10.43
2023-02-25T00:06:25.654Z,10.80
2023-02-25T00:08:52.956Z,10.38
2023-02-25T00:11:20.560Z,9.88
2023-02-25T00:13:50.617Z,8.85
2023-02-25T00:16:18.433Z,8.70
2023-02-25T00:18:46.938Z,8.77
2023-02-25T00:21:16.667Z,8.50
2023-02-25T00:23:49.546Z,10.05
2023-02-25T00:26:17.985Z,9.32
2023-02-25T00:28:45.419Z,9.60
2023-02-25T00:31:15.792Z,9.38
2023-02-25T00:33:43.138Z,8.38
2023-02-25T00:36:15.208Z,8.10
2023-02-25T00:38:42.324Z,9.32
2023-02-25T00:41:11.964Z,8.88
2023-02-25T00:43:40.533Z,8.38
2023-02-25T00:46:07.337Z,7.43
2023-02-25T00:48:34.147Z,8.27
2023-02-25T00:51:06.089Z,6.80
2023-02-25T00:53:32.824Z,8.15
2023-02-25T00:56:01.525Z,6.75
2023-02-25T00:58:31.567Z,7.43
2023-02-25T01:00:58.326Z,7.10
2023-02-25T01:03:25.112Z,7.45
2023-02-25T01:05:52.069Z,7.15
2023-02-25T01:08:21.827Z,5.95
2023-02-25T01:10:48.903Z,5.55
2023-02-25T01:13:19.133Z,5.35
2023-02-25T01:15:46.012Z,5.50
2023-02-25T01:18:12.747Z,5.53
2023-02-25T01:20:39.692Z,5.10
2023-02-25T01:23:07.355Z,5.15
2023-02-25T01:25:34.458Z,4.80
2023-02-25T01:28:01.452Z,4.15
2023-02-25T01:30:28.770Z,5.13
2023-02-25T01:32:55.602Z,4.38
2023-02-25T01:35:22.354Z,4.35
2023-02-25T01:37:50.076Z,3.97
2023-02-25T01:40:17.854Z,4.20
2023-02-25T01:42:46.357Z,4.15
2023-02-25T01:45:19.564Z,3.90
2023-02-25T01:47:50.774Z,3.65
2023-02-25T01:50:23.965Z,3.80
2023-02-25T01:52:52.185Z,4.20
2023-02-25T01:55:19.066Z,3.80
2023-02-25T01:57:46.191Z,4.50
2023-02-25T02:00:16.463Z,4.68
2023-02-25T02:02:49.937Z,4.10
2023-02-25T02:05:17.092Z,5.35
2023-02-25T02:07:44.010Z,5.30
2023-02-25T02:10:11.557Z,5.10
2023-02-25T02:12:40.546Z,5.20
2023-02-25T02:15:11.364Z,4.43
2023-02-25T02:17:38.140Z,3.80
2023-02-25T02:20:25.601Z,4.10
2023-02-25T02:23:22.613Z,4.20
2023-02-25T02:25:52.903Z,3.90
2023-02-25T02:28:40.760Z,4.00
2023-02-25T02:31:28.526Z,3.22
2023-02-25T02:34:27.626Z,3.67
2023-02-25T02:37:23.718Z,3.78
2023-02-25T02:40:05.902Z,4.57
2023-02-25T02:42:39.584Z,3.88
2023-02-25T02:45:29.198Z,3.72
2023-02-25T02:48:03.357Z,3.58
2023-02-25T02:53:14.880Z,3.80
2023-02-25T02:55:47.984Z,3.33
2023-02-25T02:58:25.309Z,3.28
2023-02-25T03:00:59.154Z,3.20
2023-02-25T03:03:36.992Z,3.63
2023-02-25T03:06:09.457Z,3.60
2023-02-25T03:08:40.822Z,2.65
2023-02-25T03:11:07.501Z,3.03
2023-02-25T03:13:37.519Z,3.60
2023-02-25T03:16:07.669Z,3.13
2023-02-25T03:18:40.769Z,3.67
2023-02-25T03:21:18.180Z,3.38
2023-02-25T03:23:48.371Z,3.50
2023-02-25T03:26:43.580Z,3.70
2023-02-25T03:29:18.179Z,3.70
2023-02-25T03:32:02.362Z,3.90
2023-02-25T03:34:36.299Z,3.60
2023-02-25T03:37:15.852Z,2.97
2023-02-25T03:39:47.539Z,3.60
2023-02-25T03:42:19.691Z,3.42
2023-02-25T03:44:52.182Z,3.78
2023-02-25T03:47:20.900Z,4.22
2023-02-25T03:49:54.138Z,4.30
2023-02-25T03:52:25.090Z,4.05
2023-02-25T03:54:53.113Z,3.60
2023-02-25T03:57:21.213Z,3.95
2023-02-25T03:59:48.075Z,3.95
2023-02-25T04:02:16.687Z,4.43
2023-02-25T04:04:43.415Z,4.35
2023-02-25T04:07:10.153Z,4.20
2023-02-25T04:09:36.807Z,4.15
2023-02-25T04:12:03.939Z,3.83
2023-02-25T04:14:30.652Z,4.15
2023-02-25T04:16:57.372Z,4.50
2023-02-25T04:19:24.222Z,4.22
2023-02-25T04:21:50.959Z,4.57
2023-02-25T04:24:17.834Z,4.38
2023-02-25T04:26:44.593Z,4.45
2023-02-25T04:29:11.388Z,3.88
2023-02-25T04:31:38.344Z,4.03
2023-02-25T04:34:05.316Z,4.15
2023-02-25T04:36:36.272Z,4.43
2023-02-25T04:39:05.707Z,4.80
2023-02-25T04:41:35.384Z,3.92
2023-02-25T04:44:05.511Z,4.30
2023-02-25T04:46:37.643Z,4.05
2023-02-25T04:49:05.172Z,4.57
2023-02-25T04:51:31.984Z,3.90
2023-02-25T04:53:59.138Z,4.25
2023-02-25T04:56:26.659Z,3.35
2023-02-25T04:58:54.382Z,3.03
2023-02-25T05:01:21.263Z,3.72
2023-02-25T05:03:48.280Z,3.10
2023-02-25T05:06:15.445Z,3.90
2023-02-25T05:08:42.218Z,3.30
2023-02-25T05:11:08.953Z,3.78
2023-02-25T05:13:35.669Z,3.25
2023-02-25T05:16:12.460Z,3.50
2023-02-25T05:18:39.731Z,3.58
2023-02-25T05:21:12.330Z,3.60
2023-02-25T05:23:43.652Z,3.05
2023-02-25T05:26:11.417Z,3.78
2023-02-25T05:31:09.996Z,3.75
2023-02-25T05:33:37.818Z,3.90
2023-02-25T05:36:09.213Z,3.55
2023-02-25T05:38:37.059Z,3.97
2023-02-25T05:41:06.615Z,3.33
2023-02-25T05:43:33.703Z,3.45
2023-02-25T05:46:01.789Z,4.97
2023-02-25T05:48:29.199Z,4.32
2023-02-25T05:51:04.365Z,4.72
2023-02-25T05:53:31.766Z,3.88
2023-02-25T05:55:58.588Z,3.85
2023-02-25T05:58:26.642Z,4.05
2023-02-25T06:00:54.302Z,4.13
2023-02-25T06:03:22.143Z,3.78
2023-02-25T06:05:48.936Z,3.85
2023-02-25T06:08:16.317Z,3.95
2023-02-25T06:10:43.052Z,3.78
2023-02-25T06:13:11.419Z,3.92
2023-02-25T06:15:40.622Z,4.70
2023-02-25T06:18:08.629Z,4.20
2023-02-25T06:20:35.846Z,4.68
2023-02-25T06:23:03.773Z,4.57
2023-02-25T06:25:31.507Z,3.92
2023-02-25T06:28:00.688Z,4.05
2023-02-25T06:30:30.070Z,4.80
2023-02-25T06:32:57.766Z,4.35
2023-02-25T06:35:25.090Z,4.90
2023-02-25T06:37:57.082Z,4.95
2023-02-25T06:40:23.897Z,4.35
2023-02-25T06:42:51.255Z,4.40
2023-02-25T06:45:18.514Z,5.03
2023-02-25T06:47:45.264Z,4.72
2023-02-25T06:50:12.561Z,4.57
2023-02-25T06:55:07.110Z,4.50
2023-02-25T06:57:34.378Z,4.80
2023-02-25T07:00:01.216Z,4.90
2023-02-25T07:02:27.915Z,5.97
2023-02-25T07:08:07.207Z,5.30
2023-02-25T07:10:35.834Z,6.60
2023-02-25T07:13:02.688Z,6.30
2023-02-25T07:15:29.546Z,5.20
2023-02-25T07:17:56.402Z,5.32
2023-02-25T07:20:23.129Z,5.72
2023-02-25T07:22:49.803Z,5.32
2023-02-25T07:25:16.546Z,6.75
2023-02-25T07:27:44.941Z,5.47
2023-02-25T07:30:13.315Z,5.07
2023-02-25T07:32:41.201Z,4.80
2023-02-25T07:35:09.001Z,5.47
2023-02-25T07:37:35.762Z,5.10
2023-02-25T07:40:02.594Z,5.25
2023-02-25T07:42:30.037Z,4.78
2023-02-25T07:44:56.720Z,4.97
2023-02-25T07:47:23.463Z,5.75
2023-02-25T07:49:56.220Z,5.75
2023-02-25T07:52:23.030Z,5.18
2023-02-25T07:54:49.819Z,5.32
2023-02-25T07:57:16.531Z,4.80
2023-02-25T07:59:43.186Z,5.07
2023-02-25T08:02:11.855Z,5.05
2023-02-25T08:07:06.029Z,5.25
2023-02-25T08:09:33.428Z,4.70
2023-02-25T08:12:00.484Z,4.55
2023-02-25T08:14:27.829Z,4.70
2023-02-25T08:16:58.054Z,4.03
2023-02-25T08:19:24.823Z,3.95
2023-02-25T08:21:51.604Z,4.40
2023-02-25T08:24:20.804Z,4.47
2023-02-25T08:26:48.216Z,4.60
2023-02-25T08:29:15.519Z,4.30
2023-02-25T08:31:42.549Z,4.75
2023-02-25T08:34:09.727Z,4.53
2023-02-25T08:36:38.024Z,4.00
2023-02-25T08:39:04.787Z,4.85
2023-02-25T08:41:32.257Z,3.85
2023-02-25T08:44:01.693Z,4.20
2023-02-25T08:46:30.377Z,3.72
2023-02-25T08:48:58.486Z,4.38
2023-02-25T08:51:35.072Z,5.20
2023-02-25T08:54:04.271Z,4.93
2023-02-25T08:56:31.144Z,4.20
2023-02-25T08:58:57.894Z,4.20
2023-02-25T09:01:25.619Z,4.22
2023-02-25T09:03:53.306Z,3.53
2023-02-25T09:06:25.246Z,4.47
2023-02-25T09:08:52.695Z,4.70
2023-02-25T09:11:20.808Z,5.10
2023-02-25T09:13:48.018Z,4.47
2023-02-25T09:16:17.767Z,4.50
2023-02-25T09:18:49.386Z,4.40
2023-02-25T09:21:16.520Z,4.55
2023-02-25T09:23:44.049Z,3.95
2023-02-25T09:26:11.223Z,4.15
2023-02-25T09:28:37.975Z,4.47
2023-02-25T09:31:05.862Z,5.30
2023-02-25T09:33:34.112Z,4.68
2023-02-25T09:36:20.750Z,3.90
2023-02-25T09:38:50.111Z,3.97
2023-02-25T09:41:31.158Z,4.32
2023-02-25T09:44:20.489Z,4.13
2023-02-25T09:47:05.759Z,5.00
2023-02-25T09:52:41.305Z,5.03
2023-02-25T09:55:18.184Z,4.47
2023-02-25T09:58:03.329Z,4.60
2023-02-25T10:00:34.094Z,4.50
2023-02-25T10:03:36.705Z,4.88
2023-02-25T10:06:30.347Z,4.05
2023-02-25T10:09:03.245Z,4.32
2023-02-25T10:11:40.796Z,4.72
2023-02-25T10:14:23.311Z,4.57
2023-02-25T10:17:03.643Z,5.43
2023-02-25T10:22:20.145Z,5.05
2023-02-25T10:24:50.702Z,4.60
2023-02-25T10:27:26.279Z,5.13
2023-02-25T10:30:00.076Z,3.88
2023-02-25T10:32:31.814Z,4.30
2023-02-25T10:35:02.216Z,4.13
2023-02-25T10:37:33.974Z,4.78
2023-02-25T10:40:04.413Z,4.40
2023-02-25T10:42:31.987Z,4.70
2023-02-25T10:45:08.339Z,4.50
2023-02-25T10:50:23.110Z,5.05
2023-02-25T10:52:59.756Z,5.50
2023-02-25T10:55:34.073Z,5.03
2023-02-25T10:58:01.200Z,5.35
2023-02-25T11:00:32.986Z,5.15
2023-02-25T11:03:01.952Z,4.00
2023-02-25T11:05:45.302Z,4.47
2023-02-25T11:08:30.393Z,4.32
2023-02-25T11:11:20.161Z,3.65
2023-02-25T11:14:01.960Z,4.22
2023-02-25T11:16:31.564Z,4.20
2023-02-25T11:19:01.148Z,3.33
2023-02-25T11:21:36.575Z,3.20
2023-02-25T11:24:13.096Z,3.47
2023-02-25T11:26:41.418Z,3.80
2023-02-25T11:29:21.317Z,3.70
2023-02-25T11:31:59.990Z,3.90
2023-02-25T11:34:31.475Z,4.32
2023-02-25T11:40:01.691Z,4.53
2023-02-25T11:42:30.456Z,4.38
2023-02-25T11:45:04.796Z,4.25
2023-02-25T11:47:34.894Z,4.05
2023-02-25T11:50:30.013Z,4.78
2023-02-25T11:53:04.877Z,5.03
2023-02-25T11:55:40.779Z,4.03
2023-02-25T11:58:16.364Z,4.57
2023-02-25T12:00:47.487Z,4.07
2023-02-25T12:03:35.887Z,4.90
2023-02-25T12:06:29.051Z,3.88
2023-02-25T12:09:40.941Z,3.83
2023-02-25T12:12:41.612Z,3.30
2023-02-25T12:15:27.163Z,3.25
2023-02-25T12:18:16.683Z,3.00
2023-02-25T12:21:02.228Z,3.05
2023-02-25T12:23:38.220Z,2.90
2023-02-25T12:26:08.748Z,3.03
2023-02-25T12:31:19.205Z,3.97
2023-02-25T12:33:54.874Z,3.42
2023-02-25T12:36:40.925Z,4.10
2023-02-25T12:39:07.680Z,4.10
2023-02-25T12:41:40.972Z,3.65
2023-02-25T12:44:38.428Z,4.07
2023-02-25T12:47:17.828Z,4.00
2023-02-25T12:50:13.272Z,3.38
2023-02-25T12:52:40.949Z,2.95
2023-02-25T12:55:25.952Z,3.08
2023-02-25T12:57:59.027Z,2.80
2023-02-25T13:00:39.840Z,2.50
2023-02-25T13:03:35.368Z,2.10
2023-02-25T13:06:29.793Z,2.00
2023-02-25T13:09:32.024Z,1.60
2023-02-25T13:12:40.795Z,1.70
2023-02-25T13:15:36.578Z,1.92
2023-02-25T13:18:24.241Z,1.73
2023-02-25T13:21:05.630Z,2.00
2023-02-25T13:23:41.076Z,2.05
2023-02-25T13:26:40.816Z,1.48
2023-02-25T13:29:21.115Z,1.42
2023-02-25T13:32:09.881Z,1.70
2023-02-25T13:34:36.537Z,1.60
2023-02-25T13:37:40.863Z,1.67
2023-02-25T13:40:37.521Z,1.85
2023-02-25T13:43:22.429Z,2.38
2023-02-25T13:46:05.456Z,1.90
2023-02-25T13:48:41.354Z,1.55
2023-02-25T13:51:13.946Z,1.60
2023-02-25T13:54:02.563Z,1.75
2023-02-25T13:56:39.975Z,1.30
2023-02-25T14:02:34.544Z,1.50
2023-02-25T14:05:30.379Z,1.42
2023-02-25T14:08:15.708Z,1.50
2023-02-25T14:10:54.650Z,1.50
2023-02-25T14:13:40.905Z,1.50
2023-02-25T14:16:08.511Z,1.40
2023-02-25T14:18:35.196Z,1.50
2023-02-25T14:21:20.398Z,2.13
2023-02-25T14:24:00.425Z,2.00
2023-02-25T14:26:41.859Z,1.88
2023-02-25T14:29:30.105Z,1.70
2023-02-25T14:32:21.992Z,2.33
2023-02-25T14:34:56.399Z,1.50
2023-02-25T14:37:37.787Z,1.70
2023-02-25T14:40:07.638Z,1.50
2023-02-25T14:42:39.923Z,1.70
2023-02-25T14:45:09.779Z,1.55
2023-02-25T14:47:40.876Z,1.90
2023-02-25T14:50:18.976Z,1.85
2023-02-25T14:53:07.148Z,1.70
2023-02-25T14:55:41.181Z,1.88
2023-02-25T14:58:35.782Z,1.80
2023-02-25T15:01:18.294Z,1.90
2023-02-25T15:04:19.614Z,2.10
2023-02-25T15:07:08.036Z,2.55
2023-02-25T15:09:40.968Z,1.95
2023-02-25T15:12:25.904Z,2.42
2023-02-25T15:15:04.770Z,2.22
2023-02-25T15:17:40.878Z,2.80
2023-02-25T15:20:41.084Z,2.28
2023-02-25T15:23:17.042Z,3.00
2023-02-25T15:26:04.466Z,2.35
2023-02-25T15:28:31.134Z,2.47
2023-02-25T15:31:01.137Z,1.98
2023-02-25T15:33:34.899Z,2.00
2023-02-25T15:36:13.822Z,2.30
2023-02-25T15:38:46.875Z,1.92
2023-02-25T15:41:38.410Z,2.38
2023-02-25T15:44:11.460Z,2.10
2023-02-25T15:46:41.296Z,2.28
2023-02-25T15:49:10.740Z,2.67
2023-02-25T15:51:40.134Z,2.35
2023-02-25T15:54:09.242Z,2.20
2023-02-25T15:56:41.162Z,2.20
2023-02-25T15:59:08.108Z,2.15
2023-02-25T16:01:41.016Z,2.03
2023-02-25T16:04:42.353Z,2.20
2023-02-25T16:07:14.686Z,2.08
2023-02-25T16:09:49.721Z,1.60
2023-02-25T16:12:17.295Z,1.75
2023-02-25T16:14:44.868Z,1.65
2023-02-25T16:17:20.339Z,2.22
2023-02-25T16:19:53.752Z,1.60
2023-02-25T16:22:24.058Z,1.58
2023-02-25T16:24:56.560Z,1.80
2023-02-25T16:30:16.342Z,1.65
2023-02-25T16:33:13.968Z,1.40
2023-02-25T16:36:22.278Z,1.30
2023-02-25T16:39:05.880Z,1.85
2023-02-25T16:41:41.187Z,1.70
2023-02-25T16:44:11.605Z,1.80
2023-02-25T16:46:41.361Z,1.30
2023-02-25T16:49:18.321Z,1.95
2023-02-25T16:51:45.924Z,1.50
2023-02-25T16:54:23.369Z,1.52
2023-02-25T16:56:55.731Z,1.88
2023-02-25T16:59:25.720Z,1.90
2023-02-25T17:02:01.431Z,1.92
2023-02-25T17:04:31.607Z,1.80
2023-02-25T17:07:19.566Z,2.15
2023-02-25T17:09:52.480Z,1.60
2023-02-25T17:12:41.031Z,1.73
2023-02-25T17:15:13.929Z,2.00
2023-02-25T17:17:44.680Z,1.80
2023-02-25T17:20:29.864Z,2.35
2023-02-25T17:23:03.010Z,1.92
2023-02-25T17:25:37.493Z,1.90
2023-02-25T17:28:06.736Z,2.35
2023-02-25T17:30:41.394Z,2.05
2023-02-25T17:33:28.701Z,1.50
2023-02-25T17:36:10.067Z,1.73
2023-02-25T17:38:39.002Z,2.10
2023-02-25T17:41:05.650Z,2.10
2023-02-25T17:46:29.068Z,2.05
2023-02-25T17:49:06.220Z,1.95
2023-02-25T17:51:37.326Z,1.77
2023-02-25T17:54:20.932Z,2.25
2023-02-25T17:57:05.792Z,1.52
2023-02-25T18:02:35.750Z,1.63
2023-02-25T18:05:21.754Z,1.80
2023-02-25T18:07:57.930Z,1.65
2023-02-25T18:10:33.709Z,1.63
2023-02-25T18:13:02.757Z,2.20
2023-02-25T18:15:36.102Z,1.92
2023-02-25T18:18:05.892Z,2.38
2023-02-25T18:20:42.473Z,2.35
2023-02-25T18:23:15.976Z,2.35
2023-02-25T18:25:45.567Z,2.70
2023-02-25T18:28:15.979Z,1.92
2023-02-25T18:30:45.110Z,2.13
2023-02-25T18:33:11.954Z,2.70
2023-02-25T18:35:41.116Z,2.47
2023-02-25T18:38:17.265Z,2.15
2023-02-25T18:40:44.868Z,2.20
2023-02-25T18:43:19.878Z,2.20
2023-02-25T18:45:47.339Z,2.38
2023-02-25T18:48:14.238Z,1.60
2023-02-25T18:50:44.670Z,2.08
2023-02-25T18:53:17.258Z,2.00
2023-02-25T18:55:44.155Z,2.13
2023-02-25T18:58:15.729Z,1.83
2023-02-25T19:00:44.620Z,2.75
2023-02-25T19:03:15.955Z,2.25
2023-02-25T19:05:42.696Z,2.30
2023-02-25T19:08:15.136Z,1.73
2023-02-25T19:10:43.913Z,1.65
2023-02-25T19:13:16.455Z,1.65
2023-02-25T19:15:43.284Z,1.58
2023-02-25T19:18:14.699Z,1.73
2023-02-25T19:20:44.149Z,1.50
2023-02-25T19:23:13.677Z,1.75
2023-02-25T19:25:41.555Z,1.90
2023-02-25T19:28:09.014Z,1.75
2023-02-25T19:30:41.341Z,1.45
2023-02-25T19:33:10.031Z,1.10
2023-02-25T19:38:08.670Z,1.10
2023-02-25T19:40:36.630Z,1.15
2023-02-25T19:43:05.123Z,1.08
2023-02-25T19:45:32.649Z,1.30
2023-02-25T19:48:00.307Z,1.27
2023-02-25T19:50:28.101Z,1.10
2023-02-25T19:52:56.089Z,1.00
2023-02-25T19:55:23.108Z,1.55
2023-02-25T19:57:49.869Z,1.10
2023-02-25T20:00:26.665Z,1.05
2023-02-25T20:02:54.345Z,1.20
2023-02-25T20:05:22.237Z,1.17
2023-02-25T20:07:50.460Z,1.15
2023-02-25T20:10:17.746Z,1.17
2023-02-25T20:12:46.185Z,1.42
2023-02-25T20:15:14.815Z,1.48
2023-02-25T20:17:43.718Z,1.38
2023-02-25T20:20:11.724Z,1.42
2023-02-25T20:22:41.096Z,1.60
2023-02-25T20:25:10.146Z,1.35
2023-02-25T20:30:07.175Z,1.45
2023-02-25T20:32:35.554Z,1.65
2023-02-25T20:35:03.048Z,1.55
2023-02-25T20:37:37.490Z,1.52
2023-02-25T20:40:08.270Z,1.58
2023-02-25T20:42:35.499Z,1.50
2023-02-25T20:45:02.757Z,1.48
2023-02-25T20:47:35.144Z,1.60
2023-02-25T20:50:02.126Z,1.60
2023-02-25T20:52:32.357Z,1.70
2023-02-25T20:54:59.324Z,1.60
2023-02-25T20:57:27.148Z,1.48
2023-02-25T20:59:54.542Z,1.70
2023-02-25T21:02:22.755Z,1.88
2023-02-25T21:04:50.081Z,2.25
2023-02-25T21:07:17.521Z,2.03
2023-02-25T21:09:44.465Z,2.25
2023-02-25T21:12:11.686Z,1.98
2023-02-25T21:14:38.639Z,1.92
2023-02-25T21:17:09.682Z,1.80
2023-02-25T21:19:38.957Z,1.80
2023-02-25T21:22:06.621Z,1.92
2023-02-25T21:24:34.421Z,1.90
2023-02-25T21:27:01.628Z,1.80
2023-02-25T21:29:28.850Z,1.95
2023-02-25T21:31:56.080Z,1.90
2023-02-25T21:34:23.006Z,2.08
2023-02-25T21:36:49.890Z,1.75
2023-02-25T21:39:16.932Z,2.45
2023-02-25T21:41:44.934Z,1.75
2023-02-25T21:44:12.465Z,1.95
2023-02-25T21:49:06.424Z,2.03
2023-02-25T21:51:36.224Z,1.80
2023-02-25T21:54:03.915Z,1.98
2023-02-25T21:56:31.287Z,1.98
2023-02-25T21:59:01.121Z,1.73
2023-02-25T22:01:33.800Z,1.90
2023-02-25T22:04:00.687Z,1.63
2023-02-25T22:06:28.214Z,1.70
2023-02-25T22:08:56.752Z,1.70
2023-02-25T22:11:26.440Z,1.67
2023-02-25T22:13:53.302Z,1.70
2023-02-25T22:16:22.957Z,1.75
2023-02-25T22:18:51.139Z,2.08
2023-02-25T22:21:23.862Z,2.15
2023-02-25T22:23:52.870Z,1.63
2023-02-25T22:26:25.642Z,1.60
2023-02-25T22:28:57.553Z,1.92
2023-02-25T22:31:25.226Z,1.90
2023-02-25T22:33:52.870Z,1.80
2023-02-25T22:36:20.368Z,1.75
2023-02-25T22:38:48.907Z,1.77
2023-02-25T22:41:21.714Z,2.00
2023-02-25T22:43:49.974Z,2.08
2023-02-25T22:46:31.799Z,1.80
2023-02-25T22:48:59.429Z,2.10
2023-02-25T22:51:29.045Z,1.70
2023-02-25T22:53:56.903Z,2.35
2023-02-25T22:56:24.483Z,1.80
2023-02-25T22:58:51.681Z,1.57
2023-02-25T23:01:20.789Z,1.97
2023-02-25T23:03:48.541Z,2.00
2023-02-25T23:06:17.127Z,1.67
2023-02-25T23:08:46.549Z,1.80
2023-02-25T23:11:19.581Z,2.05
2023-02-25T23:13:48.867Z,2.30
2023-02-25T23:16:18.378Z,1.90
2023-02-25T23:18:47.018Z,1.90
2023-02-25T23:21:19.812Z,2.27
2023-02-25T23:23:48.877Z,1.90
2023-02-25T23:26:20.186Z,2.50
2023-02-25T23:28:47.919Z,2.17
2023-02-25T23:31:26.218Z,2.33
2023-02-25T23:34:02.287Z,2.30
2023-02-25T23:36:29.822Z,2.17
2023-02-25T23:38:58.329Z,2.73
2023-02-25T23:41:25.989Z,2.40
2023-02-25T23:43:58.750Z,2.87
2023-02-25T23:46:27.694Z,2.07
2023-02-25T23:49:00.111Z,2.10
2023-02-25T23:51:28.998Z,2.60
2023-02-25T23:54:01.041Z,2.33
2023-02-25T23:56:29.254Z,2.40
2023-02-25T23:58:56.411Z,2.10
